Flight Track Log - Related Links

Times and Time Zones

All times are in EDT time to prevent confusion due to time zone crossing. See the QXE2086 flight status page for this flight to view local times or setup timezone preferences in your user account.

Time Position Orientation Groundspeed Altitude Reporting Facility
EDT Latitude Longitude Course Direction KTS MPH feet Rate Location/Type
10:45PM 47.2245 -121.5977 110° East  Level Estimated
10:46PM 47.1919 -121.4962 110° East  Level Estimated
10:47PM 47.1962 -121.3841 87° East  Level FlightAware Approximate
10:48PM 47.1624 -121.2835 102° East  Level Estimated
10:49PM 47.1285 -121.1831 109° East  Level Estimated
10:50PM 47.1242 -121.0712 93° East  Level FlightAware Approximate
10:51PM 47.1198 -120.9593 93° East  Level FlightAware Approximate
10:52PM 47.0769 -120.8659 124° Southeast  Level FlightAware Approximate
10:53PM 47.0377 -120.7807 124° Southeast  Level FlightAware Approximate
10:54PM 46.9985 -120.6957 124° Southeast  Level FlightAware Approximate
10:55PM 46.9592 -120.6108 124° Southeast  Level FlightAware Approximate
10:56PM 46.9199 -120.5260 124° Southeast  Level FlightAware Approximate
10:57PM 46.8821 -120.4338 118° Southeast  Level FlightAware Approximate
10:58PM 46.8493 -120.3434 118° Southeast  Level FlightAware Approximate
10:59PM 46.8164 -120.2531 118° Southeast  Level FlightAware Approximate
11:00PM 46.7834 -120.1629 118° Southeast  Level FlightAware Approximate
11:01PM 46.7504 -120.0729 118° Southeast  Level FlightAware Approximate
11:02PM 46.7173 -119.9829 118° Southeast  Level FlightAware Approximate
11:03PM 46.6841 -119.8930 118° Southeast  Level FlightAware Approximate
11:04PM 46.6480 -119.7958 118° Southeast  Level FlightAware Approximate
11:05PM 46.6119 -119.6987 118° Southeast  Level FlightAware Approximate
11:06PM 46.5745 -119.6028 120° Southeast  Level FlightAware Approximate
11:07PM 46.5394 -119.5051 117° Southeast  Level FlightAware Approximate
11:08PM 46.5046 -119.4053 117° Southeast  Level FlightAware Approximate
11:09PM 46.4696 -119.3057 117° Southeast  Level FlightAware Approximate
11:10PM 46.4267 -119.2160 119° Southeast  Level FlightAware Approximate
11:11PM 46.3892 -119.1184 119° Southeast  Level FlightAware Approximate
11:12PM 46.3517 -119.0210 119° Southeast  Level FlightAware Approximate
11:13PM 46.3166 -118.9218 117° Southeast  Level FlightAware Approximate
11:14PM 46.2816 -118.8225 117° Southeast  Level FlightAware Approximate
11:15PM 46.2462 -118.7237 120° Southeast  Level FlightAware Approximate
11:16PM 46.2076 -118.6273 120° Southeast  Level FlightAware Approximate
11:17PM 46.1667 -118.5333 126° Southeast  Level FlightAware Approximate
11:18PM 46.1373 -118.4306 112° Southeast  Level FlightAware Approximate
11:19PM 46.1045 -118.3302 116° Southeast  Level FlightAware Approximate
11:20PM 46.0948 -118.2890 North  Level Estimated
11:21PM 46.0948 -118.2890 North  Level Estimated
11:22PM 46.0948 -118.2890 North  Level Estimated
11:23PM 46.0948 -118.2890 North  Level Estimated
11:24PM 46.0948 -118.2890 North  Level Estimated
11:25PM 46.0948 -118.2890 North  Level Estimated

Login

Don't have an account? Register now (free) for customized features, flight alerts, and more!